Time;durP1;ratioP1;P1;durP2;ratioP2;P2;SDS_P1;SDS_P2;PMS_P1;PMS_P2;Temp;Humidity;BMP_temperature;BMP_pressure;BME280_temperature;BME280_humidity;BME280_pressure;Samples;Min_cycle;Max_cycle;Signal;HPM_P1;HPM_P2
2023/01/12 00:01:40;;;;;;;4.20;1.20;;;11.70;65.20;;;;;;2340104;55;20936;-75
2023/01/12 00:04:07;;;;;;;4.85;1.62;;;11.70;65.30;;;;;;2337055;55;20924;-75
2023/01/12 00:06:33;;;;;;;7.07;1.95;;;11.70;65.30;;;;;;2336966;55;21569;-75
2023/01/12 00:09:01;;;;;;;4.57;1.35;;;11.70;65.30;;;;;;2335453;55;20924;-75
2023/01/12 00:11:27;;;;;;;5.03;1.87;;;11.70;65.30;;;;;;2337867;53;20944;-75
2023/01/12 00:13:53;;;;;;;5.75;1.50;;;11.70;65.30;;;;;;2493296;53;21071;-76
2023/01/12 00:16:33;;;;;;;4.93;1.60;;;11.70;65.30;;;;;;2579807;53;20929;-76
2023/01/12 00:19:19;;;;;;;7.10;1.50;;;11.70;65.40;;;;;;2333671;55;20979;-75
2023/01/12 00:22:13;;;;;;;7.40;1.80;;;11.70;65.10;;;;;;2332885;55;20956;-75
2023/01/12 00:24:42;;;;;;;5.85;1.70;;;11.70;65.40;;;;;;2331713;55;21635;-75
2023/01/12 00:27:10;;;;;;;6.68;1.62;;;11.70;65.40;;;;;;2331547;53;20913;-75
2023/01/12 00:29:36;;;;;;;4.32;1.17;;;11.70;65.40;;;;;;2577623;52;20921;-75
2023/01/12 00:32:04;;;;;;;5.05;1.25;;;11.70;65.40;;;;;;2332454;54;21104;-75
2023/01/12 00:34:30;;;;;;;4.78;1.30;;;11.70;65.50;;;;;;2335134;55;20928;-75
2023/01/12 00:36:58;;;;;;;5.15;1.17;;;11.70;65.50;;;;;;2339806;53;20907;-75
2023/01/12 00:39:24;;;;;;;4.90;1.35;;;11.60;65.40;;;;;;2356722;53;21008;-75
2023/01/12 00:47:20;;;;;;;6.30;1.40;;;11.70;65.50;;;;;;2337890;54;21068;-76
2023/01/12 00:49:47;;;;;;;5.93;1.27;;;11.70;65.40;;;;;;2338472;54;21457;-75
2023/01/12 00:52:15;;;;;;;5.85;1.65;;;11.70;65.40;;;;;;2449719;53;21390;-75
2023/01/12 00:54:55;;;;;;;5.47;1.45;;;11.70;66.10;;;;;;2340395;55;21016;-75
2023/01/12 00:57:21;;;;;;;5.72;1.40;;;11.70;65.40;;;;;;2445162;53;20968;-76
2023/01/12 00:59:48;;;;;;;5.87;1.40;;;11.70;65.40;;;;;;2340547;55;20960;-75
2023/01/12 01:02:14;;;;;;;6.62;1.20;;;11.70;65.40;;;;;;2525722;53;20948;-76
2023/01/12 01:04:40;;;;;;;7.35;1.45;;;11.70;65.40;;;;;;2340150;55;20973;-75
2023/01/12 01:07:07;;;;;;;5.60;1.70;;;11.70;65.40;;;;;;2358158;53;21275;-75
2023/01/12 01:09:33;;;;;;;5.43;1.20;;;11.70;65.30;;;;;;2469064;53;21399;-75
2023/01/12 01:12:00;;;;;;;7.28;1.15;;;11.70;65.30;;;;;;2338511;55;20961;-75
2023/01/12 01:14:26;;;;;;;7.18;1.50;;;11.70;65.20;;;;;;2338579;55;21381;-76
2023/01/12 01:16:52;;;;;;;4.90;1.23;;;11.70;65.20;;;;;;2367680;53;20932;-75
2023/01/12 01:19:18;;;;;;;6.35;1.73;;;11.70;65.10;;;;;;2337994;53;20924;-75
2023/01/12 01:21:45;;;;;;;9.10;1.58;;;11.70;65.10;;;;;;2338856;55;21573;-75
2023/01/12 01:24:11;;;;;;;5.97;1.15;;;11.70;65.10;;;;;;2385919;53;20952;-75
2023/01/12 01:26:38;;;;;;;7.47;1.35;;;11.70;65.00;;;;;;2335591;55;21528;-75
2023/01/12 01:29:04;;;;;;;7.03;2.00;;;11.70;65.10;;;;;;2338343;55;21429;-75
2023/01/12 01:31:30;;;;;;;8.80;1.60;;;11.70;65.00;;;;;;2357061;53;21418;-75
2023/01/12 01:33:57;;;;;;;10.18;1.62;;;11.70;64.90;;;;;;2337695;53;20928;-75
2023/01/12 01:36:23;;;;;;;7.93;1.40;;;11.70;64.90;;;;;;2338000;55;20925;-76
2023/01/12 01:38:49;;;;;;;6.57;1.35;;;11.70;64.90;;;;;;2388621;53;20932;-75
2023/01/12 01:41:23;;;;;;;6.62;1.35;;;11.70;64.90;;;;;;2339308;55;21311;-75
2023/01/12 01:43:57;;;;;;;4.95;1.27;;;11.70;64.90;;;;;;2340114;55;21544;-75
2023/01/12 01:46:41;;;;;;;5.18;1.20;;;11.70;64.90;;;;;;2339646;55;20977;-75
2023/01/12 01:51:01;;;;;;;6.03;1.30;;;11.80;64.80;;;;;;2340396;55;21306;-75
2023/01/12 01:53:28;;;;;;;5.68;1.65;;;11.80;65.00;;;;;;2339630;55;20936;-75
2023/01/12 01:55:57;;;;;;;5.68;1.20;;;11.80;65.00;;;;;;2418746;53;21595;-76
2023/01/12 02:05:12;;;;;;;7.78;1.40;;;11.70;64.80;;;;;;2340018;55;21012;-75
2023/01/12 02:07:39;;;;;;;6.90;1.60;;;11.80;64.30;;;;;;2343021;53;21389;-74
2023/01/12 02:10:05;;;;;;;4.47;1.10;;;11.70;64.70;;;;;;2588398;53;21190;-75
2023/01/12 02:22:00;;;;;;;7.05;1.50;;;11.70;64.80;;;;;;2390060;53;20919;-75
2023/01/12 02:27:38;;;;;;;5.22;1.00;;;11.70;64.20;;;;;;2341997;54;21401;-75
2023/01/12 02:32:01;;;;;;;5.10;1.10;;;11.70;64.50;;;;;;2342661;53;20900;-76
2023/01/12 02:34:43;;;;;;;10.23;1.57;;;11.70;64.20;;;;;;2341312;54;20995;-74
2023/01/12 02:39:57;;;;;;;7.60;1.75;;;11.70;64.60;;;;;;2341036;54;20959;-75
2023/01/12 02:42:53;;;;;;;6.93;1.17;;;11.70;64.30;;;;;;2340515;55;21540;-75
2023/01/12 02:45:44;;;;;;;4.20;1.10;;;11.80;64.70;;;;;;2586470;53;20949;-75
2023/01/12 02:48:31;;;;;;;4.80;1.10;;;11.80;64.70;;;;;;2454863;53;20924;-75
2023/01/12 02:51:09;;;;;;;7.57;1.40;;;11.70;64.60;;;;;;2525513;53;20927;-75
2023/01/12 02:53:42;;;;;;;6.10;1.12;;;11.70;65.00;;;;;;2340714;55;21080;-75
2023/01/12 02:56:09;;;;;;;4.57;0.98;;;11.70;64.90;;;;;;2341053;55;21334;-76
2023/01/12 02:58:37;;;;;;;4.35;1.10;;;11.70;65.00;;;;;;2453221;53;20996;-75
2023/01/12 03:01:04;;;;;;;6.95;1.65;;;11.80;65.10;;;;;;2342164;55;21568;-75
2023/01/12 03:03:31;;;;;;;5.57;1.23;;;11.70;64.90;;;;;;2358288;53;20933;-75
2023/01/12 03:05:58;;;;;;;5.78;1.20;;;11.80;65.00;;;;;;2341791;55;21409;-75
2023/01/12 03:08:27;;;;;;;4.70;1.12;;;11.80;65.00;;;;;;2341800;55;20979;-75
2023/01/12 03:11:54;;;;;;;8.05;1.35;;;11.80;65.00;;;;;;2588666;53;20979;-75
2023/01/12 03:14:21;;;;;;;4.95;1.33;;;11.80;64.30;;;;;;2477710;53;21000;-76
2023/01/12 03:16:47;;;;;;;5.57;1.15;;;11.80;64.90;;;;;;2524714;53;20928;-74
2023/01/12 03:19:14;;;;;;;5.55;1.15;;;11.80;64.90;;;;;;2480192;52;20944;-75
2023/01/12 03:21:44;;;;;;;3.95;0.93;;;11.80;64.80;;;;;;2497427;53;20956;-74
2023/01/12 03:24:14;;;;;;;7.00;1.35;;;11.80;64.90;;;;;;2372508;53;20908;-74
2023/01/12 03:26:46;;;;;;;4.12;0.90;;;11.80;64.90;;;;;;2341691;53;21243;-75
2023/01/12 03:29:29;;;;;;;6.95;1.25;;;11.80;64.80;;;;;;2425258;53;21016;-76
2023/01/12 03:31:55;;;;;;;10.10;1.10;;;11.80;64.50;;;;;;2342334;55;20973;-76
2023/01/12 03:34:21;;;;;;;5.82;0.98;;;11.80;64.70;;;;;;2410462;53;21308;-75
2023/01/12 03:36:58;;;;;;;7.95;1.30;;;11.80;64.70;;;;;;2515105;53;21000;-76
2023/01/12 03:40:33;;;;;;;7.72;1.40;;;11.80;64.60;;;;;;2391209;52;20916;-75
2023/01/12 03:43:20;;;;;;;8.15;1.35;;;11.90;64.10;;;;;;2569278;53;20924;-75
2023/01/12 03:46:07;;;;;;;4.35;1.00;;;11.80;64.60;;;;;;2422218;53;21304;-75
2023/01/12 03:48:45;;;;;;;7.72;1.25;;;11.90;64.40;;;;;;2341874;55;21695;-75
2023/01/12 03:51:15;;;;;;;7.50;1.23;;;11.80;64.60;;;;;;2588554;53;20908;-75
2023/01/12 03:53:41;;;;;;;4.07;0.90;;;11.80;64.50;;;;;;2341820;55;21307;-75
2023/01/12 03:56:08;;;;;;;9.40;1.42;;;11.80;64.60;;;;;;2342069;54;21003;-75
2023/01/12 03:58:34;;;;;;;6.03;1.30;;;11.80;64.60;;;;;;2550360;53;21341;-75
2023/01/12 04:01:01;;;;;;;5.40;0.73;;;11.80;64.60;;;;;;2474901;53;20912;-75
2023/01/12 04:03:27;;;;;;;6.78;1.17;;;11.80;64.60;;;;;;2341423;55;20987;-74
2023/01/12 04:05:54;;;;;;;6.35;0.95;;;11.80;64.60;;;;;;2342156;55;20996;-74
2023/01/12 04:08:20;;;;;;;3.95;1.15;;;11.80;64.50;;;;;;2585230;53;21009;-75
2023/01/12 04:10:47;;;;;;;6.72;1.37;;;11.90;64.70;;;;;;2348790;53;20904;-76
2023/01/12 04:13:13;;;;;;;7.32;1.48;;;11.90;64.70;;;;;;2382109;53;20948;-75
2023/01/12 04:15:42;;;;;;;6.18;1.00;;;11.80;64.60;;;;;;2400601;53;21325;-75
2023/01/12 04:18:09;;;;;;;4.10;1.00;;;11.80;64.50;;;;;;2588403;53;20928;-74
2023/01/12 04:20:35;;;;;;;7.87;1.15;;;11.90;64.60;;;;;;2341845;55;21024;-75
2023/01/12 04:23:02;;;;;;;7.43;1.30;;;11.90;64.60;;;;;;2407271;53;20944;-75
2023/01/12 04:25:28;;;;;;;5.60;1.23;;;11.90;64.50;;;;;;2424829;53;21003;-76
2023/01/12 04:27:59;;;;;;;5.25;1.08;;;11.90;64.60;;;;;;2532929;53;20988;-74
2023/01/12 04:30:26;;;;;;;10.30;1.45;;;11.90;64.50;;;;;;2341711;55;20935;-75
2023/01/12 04:32:53;;;;;;;5.40;1.12;;;11.90;64.50;;;;;;2342390;54;21427;-75
2023/01/12 04:35:19;;;;;;;6.10;1.17;;;11.90;64.50;;;;;;2588469;53;20921;-75
2023/01/12 04:37:46;;;;;;;6.87;1.20;;;11.90;64.50;;;;;;2342444;55;20984;-75
2023/01/12 04:40:13;;;;;;;5.65;1.15;;;11.90;64.50;;;;;;2341644;55;20936;-74
2023/01/12 04:43:01;;;;;;;10.70;1.30;;;11.90;64.40;;;;;;2341516;54;21084;-75
2023/01/12 04:45:40;;;;;;;8.48;1.30;;;11.90;64.20;;;;;;2587767;53;21959;-76
2023/01/12 04:48:10;;;;;;;6.28;1.40;;;11.90;64.10;;;;;;2387515;53;21012;-75
2023/01/12 04:50:38;;;;;;;10.13;1.83;;;11.90;64.30;;;;;;2356265;53;21000;-76
2023/01/12 04:53:05;;;;;;;6.35;1.77;;;11.90;64.30;;;;;;2413406;53;20944;-76
2023/01/12 04:55:31;;;;;;;8.98;1.50;;;11.90;64.30;;;;;;2459690;53;20924;-76
2023/01/12 04:57:59;;;;;;;7.95;1.40;;;11.90;64.30;;;;;;2341440;53;21480;-76
2023/01/12 05:00:25;;;;;;;4.03;1.08;;;11.90;64.40;;;;;;2466039;53;21388;-75
2023/01/12 05:03:01;;;;;;;6.95;1.35;;;11.90;64.40;;;;;;2342105;55;20889;-76
2023/01/12 05:05:28;;;;;;;6.78;1.20;;;11.90;64.30;;;;;;2478396;53;21765;-77
2023/01/12 05:10:42;;;;;;;5.97;1.10;;;11.90;64.30;;;;;;2342214;54;21252;-76
2023/01/12 05:13:08;;;;;;;9.98;1.37;;;12.00;64.40;;;;;;2567550;53;21576;-75
2023/01/12 05:15:35;;;;;;;4.78;1.30;;;12.00;64.40;;;;;;2341901;55;21437;-75
2023/01/12 05:18:01;;;;;;;7.87;1.20;;;12.00;64.40;;;;;;2368490;53;21028;-75
2023/01/12 05:20:27;;;;;;;7.30;1.10;;;12.00;64.40;;;;;;2340696;54;21205;-75
2023/01/12 05:22:55;;;;;;;5.50;1.27;;;12.00;64.40;;;;;;2338013;53;20955;-76
2023/01/12 05:25:21;;;;;;;7.93;1.30;;;12.00;64.30;;;;;;2337437;55;21019;-76
2023/01/12 05:27:47;;;;;;;6.68;1.02;;;12.00;65.00;;;;;;2438600;53;20917;-74
2023/01/12 05:30:15;;;;;;;5.07;1.20;;;12.00;64.30;;;;;;2337354;54;20924;-76
2023/01/12 05:32:41;;;;;;;7.82;1.17;;;12.00;64.30;;;;;;2484918;53;21000;-75
2023/01/12 05:35:08;;;;;;;5.40;1.20;;;12.00;64.30;;;;;;2336244;54;21042;-76
2023/01/12 05:37:35;;;;;;;7.10;1.08;;;12.10;64.40;;;;;;2335550;55;20956;-75
2023/01/12 05:40:01;;;;;;;7.65;1.45;;;12.10;64.40;;;;;;2336459;55;20956;-75
2023/01/12 05:45:12;;;;;;;2.95;0.88;;;12.10;64.30;;;;;;2337611;54;21385;-75
2023/01/12 05:47:39;;;;;;;6.82;1.20;;;12.10;64.30;;;;;;2337667;55;21588;-75
2023/01/12 05:50:06;;;;;;;4.53;1.08;;;12.10;64.30;;;;;;2338237;55;21084;-75
2023/01/12 05:52:33;;;;;;;5.70;1.27;;;12.10;64.20;;;;;;2443719;53;21468;-75
2023/01/12 05:54:59;;;;;;;8.70;1.12;;;12.10;64.10;;;;;;2368332;53;20952;-75
2023/01/12 05:57:27;;;;;;;5.25;1.45;;;12.10;64.10;;;;;;2583185;53;21719;-75
2023/01/12 05:59:53;;;;;;;6.47;1.20;;;12.10;64.00;;;;;;2583628;53;20973;-75
2023/01/12 06:02:20;;;;;;;5.82;1.42;;;12.10;64.00;;;;;;2337621;55;21321;-75
2023/01/12 06:04:47;;;;;;;7.43;1.30;;;12.10;64.00;;;;;;2339551;55;21315;-75
2023/01/12 06:07:14;;;;;;;5.85;1.10;;;12.10;63.90;;;;;;2339576;55;21092;-75
2023/01/12 06:09:41;;;;;;;4.07;0.90;;;12.10;63.70;;;;;;2344915;53;21600;-75
2023/01/12 06:14:54;;;;;;;4.75;1.00;;;12.10;64.10;;;;;;2340654;54;21039;-75
2023/01/12 06:17:20;;;;;;;4.22;1.10;;;12.10;63.80;;;;;;2339699;55;20949;-75
2023/01/12 06:19:47;;;;;;;8.95;1.20;;;12.10;63.80;;;;;;2392699;53;21084;-74
2023/01/12 06:22:13;;;;;;;5.43;1.00;;;12.10;63.80;;;;;;2388358;53;21838;-76
2023/01/12 06:24:40;;;;;;;12.43;1.58;;;12.10;63.70;;;;;;2339323;54;20988;-75
2023/01/12 06:27:06;;;;;;;7.57;1.10;;;12.10;64.50;;;;;;2339919;53;21636;-75
2023/01/12 06:29:32;;;;;;;6.62;0.90;;;12.10;63.70;;;;;;2347576;53;22188;-74
2023/01/12 06:31:58;;;;;;;5.87;1.12;;;12.10;63.80;;;;;;2343175;53;20980;-74
2023/01/12 06:34:25;;;;;;;4.97;0.90;;;12.20;63.90;;;;;;2338661;53;20967;-75
2023/01/12 06:36:51;;;;;;;7.03;1.08;;;12.10;63.70;;;;;;2339474;55;21592;-75
2023/01/12 06:39:18;;;;;;;3.97;0.77;;;12.20;63.80;;;;;;2373492;53;20992;-75
2023/01/12 06:44:29;;;;;;;7.75;1.12;;;12.20;63.80;;;;;;2448088;53;20948;-76
2023/01/12 06:46:56;;;;;;;8.10;1.25;;;12.20;63.80;;;;;;2339895;55;21505;-75
2023/01/12 06:49:22;;;;;;;4.12;0.90;;;12.20;63.70;;;;;;2498292;52;20968;-75
2023/01/12 06:51:50;;;;;;;4.47;1.15;;;12.20;63.70;;;;;;2339627;54;21001;-75
2023/01/12 06:54:16;;;;;;;6.60;1.12;;;12.20;63.70;;;;;;2551414;53;20980;-76
2023/01/12 06:56:44;;;;;;;7.78;1.30;;;12.20;63.60;;;;;;2350883;53;21760;-77
2023/01/12 06:59:11;;;;;;;5.10;0.98;;;12.20;63.50;;;;;;2340171;55;20932;-75
2023/01/12 07:01:39;;;;;;;6.55;1.37;;;12.20;63.50;;;;;;2389027;53;20932;-76
2023/01/12 07:04:06;;;;;;;5.85;1.27;;;12.20;63.50;;;;;;2339827;54;20925;-75
2023/01/12 07:06:33;;;;;;;9.27;1.30;;;12.20;63.50;;;;;;2339406;55;21043;-75
2023/01/12 07:08:59;;;;;;;7.18;1.40;;;12.20;63.50;;;;;;2344540;53;21639;-75
2023/01/12 07:11:25;;;;;;;6.80;1.80;;;12.30;63.50;;;;;;2339553;55;21346;-75
2023/01/12 07:13:52;;;;;;;5.53;1.35;;;12.30;63.50;;;;;;2340407;55;20936;-75
2023/01/12 07:16:18;;;;;;;7.00;1.58;;;12.30;63.50;;;;;;2340031;55;20957;-75
2023/01/12 07:18:45;;;;;;;4.00;0.93;;;12.30;63.50;;;;;;2346765;53;22214;-75
2023/01/12 07:21:15;;;;;;;7.35;1.20;;;12.30;63.40;;;;;;2339054;55;21011;-75
2023/01/12 07:23:42;;;;;;;6.05;1.20;;;12.30;63.40;;;;;;2481504;53;21348;-75
2023/01/12 07:26:09;;;;;;;5.47;1.17;;;12.30;63.30;;;;;;2360637;52;21477;-75
2023/01/12 07:28:37;;;;;;;6.15;1.30;;;12.30;63.20;;;;;;2586070;53;21473;-74
2023/01/12 07:31:04;;;;;;;6.30;1.27;;;12.30;63.20;;;;;;2347435;53;21354;-75
2023/01/12 07:33:33;;;;;;;6.00;1.20;;;12.30;63.10;;;;;;2341147;54;21027;-75
2023/01/12 07:36:00;;;;;;;6.45;1.20;;;12.30;63.10;;;;;;2341941;55;20989;-74
2023/01/12 07:38:27;;;;;;;6.70;1.30;;;12.40;63.20;;;;;;2465750;53;21020;-76
2023/01/12 07:40:53;;;;;;;7.87;1.42;;;12.40;63.20;;;;;;2346503;53;20999;-75
2023/01/12 07:43:20;;;;;;;5.28;0.95;;;12.40;63.00;;;;;;2341436;55;20940;-75
2023/01/12 07:45:46;;;;;;;7.18;1.30;;;12.40;63.00;;;;;;2588679;53;21469;-75
2023/01/12 07:48:14;;;;;;;6.45;1.08;;;12.40;63.00;;;;;;2342338;55;22091;-75
2023/01/12 07:50:40;;;;;;;8.43;1.40;;;12.40;63.00;;;;;;2341624;55;21027;-75
2023/01/12 07:53:07;;;;;;;6.90;1.25;;;12.40;63.00;;;;;;2342208;55;21072;-75
2023/01/12 07:55:33;;;;;;;4.07;1.23;;;12.40;62.80;;;;;;2341709;54;21496;-75
2023/01/12 07:58:02;;;;;;;6.55;1.25;;;12.40;62.80;;;;;;2341604;55;21550;-75
2023/01/12 08:00:30;;;;;;;4.28;1.08;;;12.50;62.70;;;;;;2355666;53;21398;-74
2023/01/12 08:03:03;;;;;;;7.37;1.10;;;12.50;62.80;;;;;;2432564;53;21405;-76
2023/01/12 08:05:29;;;;;;;6.43;1.20;;;12.50;62.50;;;;;;2479477;53;21734;-74
2023/01/12 08:07:55;;;;;;;7.15;1.23;;;12.50;62.70;;;;;;2336136;54;20929;-74
2023/01/12 08:10:21;;;;;;;4.90;1.20;;;12.50;62.60;;;;;;2335168;55;20968;-75
2023/01/12 08:12:49;;;;;;;7.05;1.17;;;12.50;62.60;;;;;;2394720;53;21260;-74
2023/01/12 08:15:16;;;;;;;5.32;1.00;;;12.60;62.60;;;;;;2335790;55;21405;-75
2023/01/12 08:17:51;;;;;;;6.53;1.20;;;12.50;62.50;;;;;;2335228;54;20952;-75
2023/01/12 08:20:23;;;;;;;4.80;1.20;;;12.60;62.60;;;;;;2335297;55;21358;-75
2023/01/12 08:22:50;;;;;;;7.15;1.02;;;12.60;62.60;;;;;;2336486;54;21754;-75
2023/01/12 08:25:27;;;;;;;5.55;1.10;;;12.60;62.70;;;;;;2378313;53;20988;-76
2023/01/12 08:27:54;;;;;;;4.15;1.08;;;12.60;62.40;;;;;;2582543;53;20977;-75
2023/01/12 08:30:21;;;;;;;6.15;1.10;;;12.60;62.50;;;;;;2384889;53;20999;-74
2023/01/12 08:32:47;;;;;;;7.55;1.20;;;12.70;62.40;;;;;;2340248;55;21044;-75
2023/01/12 08:35:15;;;;;;;6.05;1.27;;;12.70;62.40;;;;;;2364009;53;21296;-75
2023/01/12 08:37:42;;;;;;;7.68;1.10;;;12.70;62.40;;;;;;2340012;55;20996;-76
2023/01/12 08:40:09;;;;;;;6.05;1.40;;;12.70;62.40;;;;;;2459206;53;20944;-75
2023/01/12 08:42:35;;;;;;;5.57;1.20;;;12.70;62.30;;;;;;2403810;53;21011;-75
2023/01/12 08:45:01;;;;;;;6.65;1.60;;;12.70;62.20;;;;;;2523495;53;21675;-75
2023/01/12 08:47:29;;;;;;;6.22;1.15;;;12.70;62.20;;;;;;2394202;53;20960;-74
2023/01/12 08:49:56;;;;;;;5.65;1.10;;;12.70;62.20;;;;;;2429685;53;20932;-75
2023/01/12 08:52:22;;;;;;;7.00;1.48;;;12.80;62.40;;;;;;2340034;54;20933;-75
2023/01/12 08:54:48;;;;;;;4.80;1.12;;;12.70;62.10;;;;;;2340517;55;20980;-74
2023/01/12 08:57:15;;;;;;;5.82;1.20;;;12.80;62.20;;;;;;2340161;55;20999;-75
2023/01/12 08:59:42;;;;;;;3.33;0.93;;;12.80;62.30;;;;;;2339848;55;20976;-75
2023/01/12 09:02:11;;;;;;;4.20;1.12;;;12.80;62.30;;;;;;2340299;55;20952;-75
2023/01/12 09:04:39;;;;;;;3.10;0.90;;;12.80;62.30;;;;;;2357519;53;21259;-75
2023/01/12 09:07:09;;;;;;;3.15;0.93;;;12.80;62.20;;;;;;2346854;53;20944;-75
2023/01/12 09:09:35;;;;;;;8.20;1.65;;;12.80;62.10;;;;;;2344977;53;21838;-76
2023/01/12 09:12:01;;;;;;;4.28;0.90;;;12.80;62.10;;;;;;2341048;54;21012;-76
2023/01/12 09:14:28;;;;;;;3.92;1.02;;;12.80;61.90;;;;;;2417115;53;21284;-74
2023/01/12 09:16:55;;;;;;;4.18;0.95;;;12.90;62.70;;;;;;2340481;54;21778;-76
2023/01/12 09:19:22;;;;;;;6.07;1.00;;;12.90;61.90;;;;;;2340514;55;21484;-75
2023/01/12 09:21:48;;;;;;;4.28;0.95;;;12.90;61.90;;;;;;2340295;55;22391;-75
2023/01/12 09:24:14;;;;;;;3.95;1.00;;;12.90;61.80;;;;;;2349530;53;21455;-74
2023/01/12 09:26:42;;;;;;;3.45;0.60;;;12.90;61.80;;;;;;2339585;55;20999;-75
2023/01/12 09:29:09;;;;;;;2.83;1.12;;;12.90;61.80;;;;;;2458791;53;20896;-75
2023/01/12 09:31:36;;;;;;;4.22;1.10;;;12.90;61.80;;;;;;2567929;53;20948;-75
2023/01/12 09:34:02;;;;;;;3.72;1.10;;;12.90;61.50;;;;;;2385487;53;21023;-75
2023/01/12 09:36:32;;;;;;;5.05;1.30;;;12.90;61.50;;;;;;2380952;53;21330;-75
2023/01/12 09:38:58;;;;;;;4.53;1.10;;;13.00;61.50;;;;;;2412530;53;20947;-75
2023/01/12 09:48:07;;;;;;;4.97;1.05;;;13.00;61.30;;;;;;2340433;53;20968;-75
2023/01/12 09:52:08;;;;;;;4.18;1.35;;;13.00;61.10;;;;;;2339928;55;20992;-75
2023/01/12 09:54:35;;;;;;;6.68;1.87;;;13.00;61.20;;;;;;2371898;53;20942;-76
2023/01/12 09:57:29;;;;;;;4.70;1.30;;;13.00;61.40;;;;;;2371183;53;20965;-75
2023/01/12 10:00:19;;;;;;;4.87;1.60;;;13.00;61.00;;;;;;2343543;55;20971;-75
2023/01/12 10:03:05;;;;;;;4.53;0.95;;;13.00;60.80;;;;;;2586332;53;21000;-75
2023/01/12 10:05:49;;;;;;;3.60;1.02;;;13.00;61.10;;;;;;2339761;55;21700;-76
2023/01/12 10:09:46;;;;;;;5.12;1.45;;;13.00;61.10;;;;;;2400255;53;20912;-75
2023/01/12 10:12:24;;;;;;;4.30;1.08;;;13.00;60.80;;;;;;2340324;55;21028;-75
2023/01/12 10:15:02;;;;;;;3.62;1.05;;;13.00;61.40;;;;;;2344629;54;21120;-75
2023/01/12 10:19:14;;;;;;;3.75;1.48;;;13.00;61.50;;;;;;2321310;54;20945;-76
2023/01/12 10:21:40;;;;;;;6.00;1.20;;;13.10;61.60;;;;;;2351570;53;20959;-75
2023/01/12 10:24:13;;;;;;;3.65;1.05;;;13.10;62.00;;;;;;2420855;53;20944;-75
2023/01/12 10:26:42;;;;;;;4.53;1.10;;;13.10;62.00;;;;;;2339877;55;21449;-75
2023/01/12 10:29:09;;;;;;;3.08;1.20;;;13.10;62.00;;;;;;2346662;53;21004;-74
2023/01/12 10:31:35;;;;;;;6.55;1.87;;;13.10;62.10;;;;;;2360973;53;20916;-75
2023/01/12 10:34:06;;;;;;;7.90;1.80;;;13.20;62.00;;;;;;2396202;53;20932;-75
2023/01/12 10:36:34;;;;;;;6.35;1.73;;;13.20;61.90;;;;;;2376749;53;20919;-75
2023/01/12 10:39:03;;;;;;;4.45;1.33;;;13.20;61.70;;;;;;2341030;55;20960;-76
2023/01/12 10:41:36;;;;;;;3.42;1.12;;;13.30;61.90;;;;;;2340260;55;21055;-75
2023/01/12 10:44:12;;;;;;;5.37;0.80;;;13.30;61.90;;;;;;2472011;53;20965;-74
2023/01/12 10:46:38;;;;;;;3.67;1.02;;;13.30;61.60;;;;;;2405551;53;21242;-75
2023/01/12 10:50:21;;;;;;;6.15;1.35;;;13.40;61.90;;;;;;2379039;53;21296;-75
2023/01/12 10:52:49;;;;;;;4.97;0.85;;;13.40;61.00;;;;;;2352868;53;20956;-72
2023/01/12 10:55:19;;;;;;;3.90;0.90;;;13.40;61.80;;;;;;2411430;53;20928;-73
2023/01/12 10:57:48;;;;;;;4.75;1.05;;;13.50;61.60;;;;;;2340601;55;20987;-73
2023/01/12 11:00:23;;;;;;;3.67;0.90;;;13.50;61.60;;;;;;2340728;55;21048;-73
2023/01/12 11:02:53;;;;;;;3.20;0.60;;;13.50;61.40;;;;;;2422614;53;21032;-73
2023/01/12 11:05:34;;;;;;;3.00;0.90;;;13.60;61.70;;;;;;2340403;54;20940;-72
2023/01/12 11:08:00;;;;;;;2.10;0.50;;;13.60;61.50;;;;;;2340189;54;21052;-73
2023/01/12 11:10:28;;;;;;;2.85;0.57;;;13.60;61.70;;;;;;2339782;55;20980;-73
2023/01/12 11:12:57;;;;;;;4.53;0.80;;;13.60;61.70;;;;;;2446818;53;20952;-73
2023/01/12 11:15:23;;;;;;;3.65;0.70;;;13.70;61.40;;;;;;2339402;55;21385;-73
2023/01/12 11:18:29;;;;;;;4.00;0.93;;;13.70;61.40;;;;;;2340109;55;21043;-73
2023/01/12 11:21:09;;;;;;;4.20;0.82;;;13.70;60.90;;;;;;2340389;54;20949;-73
2023/01/12 11:24:27;;;;;;;3.65;0.60;;;13.70;61.00;;;;;;2479219;53;20997;-72
2023/01/12 11:27:21;;;;;;;2.03;0.62;;;13.70;61.20;;;;;;2398457;53;21340;-72
2023/01/12 11:30:11;;;;;;;3.45;0.80;;;13.80;61.30;;;;;;2339501;53;20964;-72
2023/01/12 11:32:48;;;;;;;3.08;0.68;;;13.80;61.40;;;;;;2371574;53;21326;-73
2023/01/12 11:35:34;;;;;;;3.92;0.70;;;13.80;61.20;;;;;;2343918;53;21563;-72
2023/01/12 11:38:07;;;;;;;3.55;0.70;;;13.80;61.20;;;;;;2340908;55;21465;-72
2023/01/12 11:40:36;;;;;;;5.47;1.08;;;13.80;61.20;;;;;;2339834;54;21451;-73
2023/01/12 11:46:14;;;;;;;4.20;0.65;;;13.90;61.20;;;;;;2321380;54;20964;-72
2023/01/12 11:48:50;;;;;;;4.15;1.00;;;13.80;61.10;;;;;;2339875;55;20959;-73
2023/01/12 11:51:16;;;;;;;1.52;0.60;;;13.90;61.00;;;;;;2339754;55;21457;-72
2023/01/12 11:53:43;;;;;;;4.62;0.88;;;13.80;61.20;;;;;;2339658;55;21000;-72
2023/01/12 12:01:14;;;;;;;5.05;0.70;;;13.80;61.20;;;;;;2340091;54;21075;-72
2023/01/12 12:06:54;;;;;;;4.35;0.80;;;13.90;60.70;;;;;;2583733;53;20980;-72
2023/01/12 12:10:55;;;;;;;2.33;0.90;;;13.90;60.70;;;;;;2583884;53;20949;-73
2023/01/12 12:13:49;;;;;;;2.62;0.60;;;13.90;60.60;;;;;;2338416;54;20940;-72
2023/01/12 12:16:26;;;;;;;5.37;1.08;;;13.90;61.00;;;;;;2338614;54;21382;-73
2023/01/12 12:19:14;;;;;;;3.85;1.00;;;13.90;61.30;;;;;;2337912;55;20947;-72
2023/01/12 12:21:49;;;;;;;4.25;1.12;;;13.90;61.40;;;;;;2337924;54;21528;-72
2023/01/12 12:24:46;;;;;;;4.50;1.00;;;13.90;61.40;;;;;;2338355;54;21642;-73
2023/01/12 12:28:55;;;;;;;2.95;0.90;;;13.90;61.30;;;;;;2337842;55;21004;-73
2023/01/12 12:31:27;;;;;;;4.05;0.90;;;14.00;61.10;;;;;;2340302;55;21008;-72
2023/01/12 12:36:01;;;;;;;3.12;0.70;;;14.00;61.70;;;;;;2340287;54;21595;-72
2023/01/12 12:45:15;;;;;;;2.65;0.65;;;14.10;61.20;;;;;;2340384;55;21791;-73
2023/01/12 12:48:02;;;;;;;2.55;0.60;;;14.10;61.20;;;;;;2418484;53;21564;-72
2023/01/12 12:50:31;;;;;;;2.05;0.65;;;14.10;61.30;;;;;;2347979;53;20940;-73
2023/01/12 12:53:59;;;;;;;2.55;0.50;;;14.10;61.80;;;;;;2340270;55;21941;-73
2023/01/12 12:56:27;;;;;;;3.20;0.68;;;14.10;61.10;;;;;;2339556;55;21020;-73
2023/01/12 12:58:57;;;;;;;3.10;0.70;;;14.10;61.70;;;;;;2339987;55;21052;-72
2023/01/12 13:01:53;;;;;;;3.78;0.60;;;14.10;61.70;;;;;;2359686;53;21575;-72
2023/01/12 13:09:36;;;;;;;2.28;0.47;;;14.10;61.10;;;;;;2343780;53;20939;-73
2023/01/12 13:12:58;;;;;;;2.08;0.80;;;14.10;61.20;;;;;;2482202;53;21507;-73
2023/01/12 13:15:35;;;;;;;4.53;0.70;;;14.20;61.00;;;;;;2340032;54;20949;-72
2023/01/12 13:18:02;;;;;;;3.00;0.82;;;14.20;61.60;;;;;;2340218;54;21433;-73
2023/01/12 13:20:51;;;;;;;5.07;0.75;;;14.10;61.50;;;;;;2342643;53;20991;-73
2023/01/12 13:23:46;;;;;;;3.87;0.52;;;14.10;61.10;;;;;;2475024;53;20991;-73
2023/01/12 13:26:37;;;;;;;2.42;0.70;;;14.10;61.00;;;;;;2340472;54;21368;-73
2023/01/12 13:29:34;;;;;;;3.72;0.60;;;14.10;61.20;;;;;;2340336;54;20960;-73
2023/01/12 13:32:37;;;;;;;3.33;0.52;;;14.10;61.00;;;;;;2445980;53;21039;-73
2023/01/12 13:35:20;;;;;;;3.65;1.00;;;14.10;60.90;;;;;;2339448;55;20976;-73
2023/01/12 13:37:51;;;;;;;4.10;0.80;;;14.10;61.20;;;;;;2338327;54;21363;-73
2023/01/12 13:40:28;;;;;;;3.12;0.77;;;14.10;61.20;;;;;;2337621;53;21500;-73
2023/01/12 13:43:14;;;;;;;2.45;0.70;;;14.20;61.00;;;;;;2451790;53;21331;-72
2023/01/12 13:45:47;;;;;;;2.30;0.80;;;14.20;61.40;;;;;;2546947;53;21625;-72
2023/01/12 13:48:13;;;;;;;3.78;0.73;;;14.20;61.20;;;;;;2366007;54;20957;-73
2023/01/12 13:50:49;;;;;;;3.37;0.60;;;14.20;61.40;;;;;;2337471;54;21468;-72
2023/01/12 13:53:27;;;;;;;3.03;0.80;;;14.20;61.30;;;;;;2338312;55;20944;-73
2023/01/12 13:55:59;;;;;;;2.97;0.60;;;14.20;61.10;;;;;;2337894;55;20936;-73
2023/01/12 13:58:25;;;;;;;4.12;0.90;;;14.20;61.30;;;;;;2337598;54;20929;-73
2023/01/12 14:00:58;;;;;;;3.20;0.75;;;14.20;61.00;;;;;;2337134;54;20968;-73
2023/01/12 14:04:02;;;;;;;4.18;1.08;;;14.20;61.70;;;;;;2512206;53;21449;-72
2023/01/12 14:11:09;;;;;;;5.75;1.08;;;14.30;60.50;;;;;;2339471;54;21235;-73
2023/01/12 14:13:38;;;;;;;;;;;14.30;60.10;;;;;;2346916;53;21023;-73
2023/01/12 14:18:58;;;;;;;4.23;0.63;;;14.30;60.90;;;;;;2310782;53;2287741;-73
2023/01/12 14:21:36;;;;;;;4.00;0.93;;;14.30;61.00;;;;;;2338061;54;21007;-72
2023/01/12 14:24:20;;;;;;;3.55;0.82;;;14.30;60.80;;;;;;2338240;55;20965;-72
2023/01/12 14:26:46;;;;;;;3.20;0.70;;;14.30;60.50;;;;;;2338075;55;21279;-73
2023/01/12 14:29:12;;;;;;;3.35;0.93;;;14.30;61.00;;;;;;2396021;53;21025;-73
2023/01/12 14:31:43;;;;;;;2.80;0.60;;;14.30;60.90;;;;;;2338520;55;20932;-72
2023/01/12 14:34:33;;;;;;;4.37;1.00;;;14.30;60.90;;;;;;2349627;53;21452;-73
2023/01/12 14:37:03;;;;;;;4.55;0.77;;;14.30;60.30;;;;;;2338173;55;21504;-73
2023/01/12 14:39:35;;;;;;;4.43;0.70;;;14.30;60.80;;;;;;2584795;53;20936;-73
2023/01/12 14:47:33;;;;;;;3.67;0.95;;;14.30;60.70;;;;;;2371427;53;20947;-72